sensor_id;sensor_type;location;lat;lon;timestamp;P1;durP1;ratioP1;P2;durP2;ratioP2
1206;SDS011;593;53.184;8.216;2023-10-31T00:00:49;7.70;;;6.93;;
1206;SDS011;593;53.184;8.216;2023-10-31T00:03:15;8.47;;;7.00;;
1206;SDS011;593;53.184;8.216;2023-10-31T00:05:40;8.30;;;7.60;;
1206;SDS011;593;53.184;8.216;2023-10-31T00:08:06;7.73;;;6.73;;
1206;SDS011;593;53.184;8.216;2023-10-31T00:10:31;7.50;;;6.37;;
1206;SDS011;593;53.184;8.216;2023-10-31T00:12:57;7.93;;;7.13;;
1206;SDS011;593;53.184;8.216;2023-10-31T00:15:22;7.70;;;6.90;;
1206;SDS011;593;53.184;8.216;2023-10-31T00:17:49;8.20;;;6.73;;
1206;SDS011;593;53.184;8.216;2023-10-31T00:20:15;7.73;;;7.03;;
1206;SDS011;593;53.184;8.216;2023-10-31T00:22:40;12.40;;;8.33;;
1206;SDS011;593;53.184;8.216;2023-10-31T00:25:05;8.60;;;7.77;;
1206;SDS011;593;53.184;8.216;2023-10-31T00:27:31;8.90;;;7.90;;
1206;SDS011;593;53.184;8.216;2023-10-31T00:29:56;9.77;;;8.77;;
1206;SDS011;593;53.184;8.216;2023-10-31T00:32:22;8.40;;;7.70;;
1206;SDS011;593;53.184;8.216;2023-10-31T00:34:50;8.03;;;7.27;;
1206;SDS011;593;53.184;8.216;2023-10-31T00:37:16;8.53;;;7.73;;
1206;SDS011;593;53.184;8.216;2023-10-31T00:39:41;9.53;;;8.47;;
1206;SDS011;593;53.184;8.216;2023-10-31T00:42:06;8.87;;;7.17;;
1206;SDS011;593;53.184;8.216;2023-10-31T00:44:33;8.90;;;8.00;;
1206;SDS011;593;53.184;8.216;2023-10-31T00:46:58;8.03;;;7.23;;
1206;SDS011;593;53.184;8.216;2023-10-31T00:49:23;8.27;;;7.50;;
1206;SDS011;593;53.184;8.216;2023-10-31T00:51:49;9.77;;;7.60;;
1206;SDS011;593;53.184;8.216;2023-10-31T00:54:14;8.90;;;8.07;;
1206;SDS011;593;53.184;8.216;2023-10-31T00:56:39;9.67;;;8.77;;
1206;SDS011;593;53.184;8.216;2023-10-31T00:59:05;10.70;;;8.77;;
1206;SDS011;593;53.184;8.216;2023-10-31T01:01:30;10.93;;;7.97;;
1206;SDS011;593;53.184;8.216;2023-10-31T01:03:55;8.33;;;7.43;;
1206;SDS011;593;53.184;8.216;2023-10-31T01:06:21;10.03;;;8.37;;
1206;SDS011;593;53.184;8.216;2023-10-31T01:08:46;9.70;;;8.07;;
1206;SDS011;593;53.184;8.216;2023-10-31T01:11:12;9.43;;;8.13;;
1206;SDS011;593;53.184;8.216;2023-10-31T01:13:38;8.93;;;8.03;;
1206;SDS011;593;53.184;8.216;2023-10-31T01:16:03;9.37;;;8.40;;
1206;SDS011;593;53.184;8.216;2023-10-31T01:18:29;9.30;;;8.27;;
1206;SDS011;593;53.184;8.216;2023-10-31T01:20:54;11.20;;;8.93;;
1206;SDS011;593;53.184;8.216;2023-10-31T01:23:19;9.70;;;8.70;;
1206;SDS011;593;53.184;8.216;2023-10-31T01:25:44;9.30;;;7.80;;
1206;SDS011;593;53.184;8.216;2023-10-31T01:28:10;9.33;;;8.30;;
1206;SDS011;593;53.184;8.216;2023-10-31T01:30:35;9.00;;;8.10;;
1206;SDS011;593;53.184;8.216;2023-10-31T01:33:01;9.07;;;8.10;;
1206;SDS011;593;53.184;8.216;2023-10-31T01:35:26;11.03;;;8.93;;
1206;SDS011;593;53.184;8.216;2023-10-31T01:37:51;9.00;;;7.77;;
1206;SDS011;593;53.184;8.216;2023-10-31T01:40:17;9.57;;;8.67;;
1206;SDS011;593;53.184;8.216;2023-10-31T01:42:42;8.57;;;7.67;;
1206;SDS011;593;53.184;8.216;2023-10-31T01:45:08;10.23;;;8.87;;
1206;SDS011;593;53.184;8.216;2023-10-31T01:47:33;10.90;;;9.33;;
1206;SDS011;593;53.184;8.216;2023-10-31T01:49:59;7.67;;;6.97;;
1206;SDS011;593;53.184;8.216;2023-10-31T01:52:25;8.67;;;7.77;;
1206;SDS011;593;53.184;8.216;2023-10-31T01:54:51;9.77;;;8.77;;
1206;SDS011;593;53.184;8.216;2023-10-31T01:57:20;10.33;;;8.47;;
1206;SDS011;593;53.184;8.216;2023-10-31T01:59:47;8.50;;;7.63;;
1206;SDS011;593;53.184;8.216;2023-10-31T02:02:14;10.30;;;8.07;;
1206;SDS011;593;53.184;8.216;2023-10-31T02:04:40;10.40;;;8.50;;
1206;SDS011;593;53.184;8.216;2023-10-31T02:07:05;10.47;;;9.37;;
1206;SDS011;593;53.184;8.216;2023-10-31T02:09:31;10.70;;;9.33;;
1206;SDS011;593;53.184;8.216;2023-10-31T02:11:57;13.40;;;10.00;;
1206;SDS011;593;53.184;8.216;2023-10-31T02:14:23;9.67;;;8.40;;
1206;SDS011;593;53.184;8.216;2023-10-31T02:16:49;9.87;;;8.97;;
1206;SDS011;593;53.184;8.216;2023-10-31T02:19:15;11.40;;;9.30;;
1206;SDS011;593;53.184;8.216;2023-10-31T02:21:46;10.80;;;9.70;;
1206;SDS011;593;53.184;8.216;2023-10-31T02:24:11;12.63;;;9.70;;
1206;SDS011;593;53.184;8.216;2023-10-31T02:26:37;12.47;;;10.17;;
1206;SDS011;593;53.184;8.216;2023-10-31T02:29:02;13.27;;;10.37;;
1206;SDS011;593;53.184;8.216;2023-10-31T02:31:28;13.23;;;10.97;;
1206;SDS011;593;53.184;8.216;2023-10-31T02:33:54;14.67;;;11.63;;
1206;SDS011;593;53.184;8.216;2023-10-31T02:36:20;13.23;;;10.87;;
1206;SDS011;593;53.184;8.216;2023-10-31T02:38:46;16.10;;;11.30;;
1206;SDS011;593;53.184;8.216;2023-10-31T02:41:12;14.23;;;10.37;;
1206;SDS011;593;53.184;8.216;2023-10-31T02:43:41;13.10;;;10.57;;
1206;SDS011;593;53.184;8.216;2023-10-31T02:46:07;11.97;;;10.70;;
1206;SDS011;593;53.184;8.216;2023-10-31T02:48:32;13.73;;;11.23;;
1206;SDS011;593;53.184;8.216;2023-10-31T02:51:03;15.77;;;11.80;;
1206;SDS011;593;53.184;8.216;2023-10-31T02:53:29;12.83;;;10.13;;
1206;SDS011;593;53.184;8.216;2023-10-31T02:55:55;12.57;;;10.37;;
1206;SDS011;593;53.184;8.216;2023-10-31T02:58:20;13.90;;;10.70;;
1206;SDS011;593;53.184;8.216;2023-10-31T03:00:46;14.57;;;11.13;;
1206;SDS011;593;53.184;8.216;2023-10-31T03:03:11;15.07;;;11.10;;
1206;SDS011;593;53.184;8.216;2023-10-31T03:05:36;14.20;;;11.03;;
1206;SDS011;593;53.184;8.216;2023-10-31T03:08:02;12.73;;;10.30;;
1206;SDS011;593;53.184;8.216;2023-10-31T03:10:27;15.83;;;12.40;;
1206;SDS011;593;53.184;8.216;2023-10-31T03:12:52;14.33;;;11.40;;
1206;SDS011;593;53.184;8.216;2023-10-31T03:15:18;12.43;;;10.90;;
1206;SDS011;593;53.184;8.216;2023-10-31T03:17:43;14.83;;;11.43;;
1206;SDS011;593;53.184;8.216;2023-10-31T03:20:09;14.50;;;11.03;;
1206;SDS011;593;53.184;8.216;2023-10-31T03:22:34;14.23;;;10.90;;
1206;SDS011;593;53.184;8.216;2023-10-31T03:25:00;14.27;;;11.10;;
1206;SDS011;593;53.184;8.216;2023-10-31T03:27:26;17.83;;;12.87;;
1206;SDS011;593;53.184;8.216;2023-10-31T03:29:54;16.00;;;11.30;;
1206;SDS011;593;53.184;8.216;2023-10-31T03:32:20;14.43;;;10.07;;
1206;SDS011;593;53.184;8.216;2023-10-31T03:34:45;13.43;;;11.03;;
1206;SDS011;593;53.184;8.216;2023-10-31T03:37:10;16.93;;;12.40;;
1206;SDS011;593;53.184;8.216;2023-10-31T03:39:36;15.07;;;11.97;;
1206;SDS011;593;53.184;8.216;2023-10-31T03:42:01;14.60;;;11.77;;
1206;SDS011;593;53.184;8.216;2023-10-31T03:44:27;13.33;;;11.07;;
1206;SDS011;593;53.184;8.216;2023-10-31T03:46:52;13.83;;;10.57;;
1206;SDS011;593;53.184;8.216;2023-10-31T03:49:17;14.27;;;11.07;;
1206;SDS011;593;53.184;8.216;2023-10-31T03:51:43;14.90;;;10.97;;
1206;SDS011;593;53.184;8.216;2023-10-31T03:54:08;16.43;;;11.53;;
1206;SDS011;593;53.184;8.216;2023-10-31T03:56:40;16.10;;;11.37;;
1206;SDS011;593;53.184;8.216;2023-10-31T03:59:07;15.17;;;12.13;;
1206;SDS011;593;53.184;8.216;2023-10-31T04:01:32;16.73;;;11.53;;
1206;SDS011;593;53.184;8.216;2023-10-31T04:03:58;14.57;;;10.80;;
1206;SDS011;593;53.184;8.216;2023-10-31T04:06:23;16.97;;;12.90;;
1206;SDS011;593;53.184;8.216;2023-10-31T04:08:48;13.50;;;9.77;;
1206;SDS011;593;53.184;8.216;2023-10-31T04:11:14;14.30;;;11.30;;
1206;SDS011;593;53.184;8.216;2023-10-31T04:13:39;12.80;;;10.30;;
1206;SDS011;593;53.184;8.216;2023-10-31T04:16:04;13.63;;;10.80;;
1206;SDS011;593;53.184;8.216;2023-10-31T04:18:30;11.83;;;10.57;;
1206;SDS011;593;53.184;8.216;2023-10-31T04:20:55;14.97;;;10.43;;
1206;SDS011;593;53.184;8.216;2023-10-31T04:23:21;13.63;;;9.93;;
1206;SDS011;593;53.184;8.216;2023-10-31T04:25:46;13.97;;;10.73;;
1206;SDS011;593;53.184;8.216;2023-10-31T04:28:11;13.60;;;9.40;;
1206;SDS011;593;53.184;8.216;2023-10-31T04:30:38;15.80;;;10.73;;
1206;SDS011;593;53.184;8.216;2023-10-31T04:33:04;10.93;;;9.43;;
1206;SDS011;593;53.184;8.216;2023-10-31T04:35:29;13.57;;;11.03;;
1206;SDS011;593;53.184;8.216;2023-10-31T04:37:54;11.50;;;9.57;;
1206;SDS011;593;53.184;8.216;2023-10-31T04:40:21;13.27;;;9.70;;
1206;SDS011;593;53.184;8.216;2023-10-31T04:42:47;11.87;;;9.23;;
1206;SDS011;593;53.184;8.216;2023-10-31T04:45:12;11.40;;;9.40;;
1206;SDS011;593;53.184;8.216;2023-10-31T04:47:38;12.03;;;8.57;;
1206;SDS011;593;53.184;8.216;2023-10-31T04:50:03;12.80;;;9.00;;
1206;SDS011;593;53.184;8.216;2023-10-31T04:52:29;12.37;;;9.40;;
1206;SDS011;593;53.184;8.216;2023-10-31T04:54:54;13.93;;;9.77;;
1206;SDS011;593;53.184;8.216;2023-10-31T04:57:20;13.10;;;9.97;;
1206;SDS011;593;53.184;8.216;2023-10-31T04:59:45;12.20;;;9.53;;
1206;SDS011;593;53.184;8.216;2023-10-31T05:02:11;10.27;;;7.20;;
1206;SDS011;593;53.184;8.216;2023-10-31T05:04:39;8.87;;;6.87;;
1206;SDS011;593;53.184;8.216;2023-10-31T05:07:05;5.27;;;3.90;;
1206;SDS011;593;53.184;8.216;2023-10-31T05:09:30;3.63;;;3.10;;
1206;SDS011;593;53.184;8.216;2023-10-31T05:11:56;1.57;;;1.47;;
1206;SDS011;593;53.184;8.216;2023-10-31T05:14:21;1.23;;;1.13;;
1206;SDS011;593;53.184;8.216;2023-10-31T05:16:47;0.90;;;0.90;;
1206;SDS011;593;53.184;8.216;2023-10-31T05:19:12;1.10;;;0.80;;
1206;SDS011;593;53.184;8.216;2023-10-31T05:21:37;0.60;;;0.60;;
1206;SDS011;593;53.184;8.216;2023-10-31T05:24:03;0.80;;;0.50;;
1206;SDS011;593;53.184;8.216;2023-10-31T05:26:29;1.53;;;0.70;;
1206;SDS011;593;53.184;8.216;2023-10-31T05:28:55;1.30;;;0.70;;
1206;SDS011;593;53.184;8.216;2023-10-31T05:31:22;0.60;;;0.50;;
1206;SDS011;593;53.184;8.216;2023-10-31T05:33:50;2.43;;;0.60;;
1206;SDS011;593;53.184;8.216;2023-10-31T05:36:21;1.63;;;0.53;;
1206;SDS011;593;53.184;8.216;2023-10-31T05:38:51;0.73;;;0.40;;
1206;SDS011;593;53.184;8.216;2023-10-31T05:41:16;0.57;;;0.57;;
1206;SDS011;593;53.184;8.216;2023-10-31T05:43:42;0.60;;;0.50;;
1206;SDS011;593;53.184;8.216;2023-10-31T05:46:07;0.60;;;0.50;;
1206;SDS011;593;53.184;8.216;2023-10-31T05:48:39;0.50;;;0.50;;
1206;SDS011;593;53.184;8.216;2023-10-31T05:51:10;0.50;;;0.50;;
1206;SDS011;593;53.184;8.216;2023-10-31T05:53:43;1.43;;;0.50;;
1206;SDS011;593;53.184;8.216;2023-10-31T05:56:11;0.70;;;0.43;;
1206;SDS011;593;53.184;8.216;2023-10-31T05:58:37;0.97;;;0.50;;
1206;SDS011;593;53.184;8.216;2023-10-31T06:01:03;1.17;;;0.50;;
1206;SDS011;593;53.184;8.216;2023-10-31T06:03:29;0.50;;;0.40;;
1206;SDS011;593;53.184;8.216;2023-10-31T06:05:54;0.50;;;0.40;;
1206;SDS011;593;53.184;8.216;2023-10-31T06:08:20;0.73;;;0.50;;
1206;SDS011;593;53.184;8.216;2023-10-31T06:10:45;0.93;;;0.40;;
1206;SDS011;593;53.184;8.216;2023-10-31T06:13:10;0.50;;;0.40;;
1206;SDS011;593;53.184;8.216;2023-10-31T06:15:36;1.00;;;0.50;;
1206;SDS011;593;53.184;8.216;2023-10-31T06:18:01;1.23;;;0.60;;
1206;SDS011;593;53.184;8.216;2023-10-31T06:20:28;0.53;;;0.50;;
1206;SDS011;593;53.184;8.216;2023-10-31T06:22:53;0.70;;;0.60;;
1206;SDS011;593;53.184;8.216;2023-10-31T06:25:18;2.20;;;1.00;;
1206;SDS011;593;53.184;8.216;2023-10-31T06:27:44;1.53;;;0.63;;
1206;SDS011;593;53.184;8.216;2023-10-31T06:30:09;1.47;;;0.90;;
1206;SDS011;593;53.184;8.216;2023-10-31T06:32:35;2.10;;;0.80;;
1206;SDS011;593;53.184;8.216;2023-10-31T06:35:01;1.07;;;0.60;;
1206;SDS011;593;53.184;8.216;2023-10-31T06:37:27;1.47;;;0.70;;
1206;SDS011;593;53.184;8.216;2023-10-31T06:39:52;3.73;;;0.83;;
1206;SDS011;593;53.184;8.216;2023-10-31T06:42:18;1.20;;;0.70;;
1206;SDS011;593;53.184;8.216;2023-10-31T06:44:43;4.47;;;0.80;;
1206;SDS011;593;53.184;8.216;2023-10-31T06:47:08;0.73;;;0.73;;
1206;SDS011;593;53.184;8.216;2023-10-31T06:49:34;0.70;;;0.70;;
1206;SDS011;593;53.184;8.216;2023-10-31T06:51:59;0.70;;;0.70;;
1206;SDS011;593;53.184;8.216;2023-10-31T06:54:24;0.80;;;0.80;;
1206;SDS011;593;53.184;8.216;2023-10-31T06:56:50;0.90;;;0.77;;
1206;SDS011;593;53.184;8.216;2023-10-31T06:59:21;0.80;;;0.70;;
1206;SDS011;593;53.184;8.216;2023-10-31T07:01:46;1.63;;;0.80;;
1206;SDS011;593;53.184;8.216;2023-10-31T07:04:12;0.90;;;0.70;;
1206;SDS011;593;53.184;8.216;2023-10-31T07:06:38;4.43;;;0.73;;
1206;SDS011;593;53.184;8.216;2023-10-31T07:09:04;1.40;;;0.70;;
1206;SDS011;593;53.184;8.216;2023-10-31T07:11:30;0.80;;;0.60;;
1206;SDS011;593;53.184;8.216;2023-10-31T07:13:57;1.23;;;0.60;;
1206;SDS011;593;53.184;8.216;2023-10-31T07:16:25;0.93;;;0.60;;
1206;SDS011;593;53.184;8.216;2023-10-31T07:18:54;1.83;;;0.73;;
1206;SDS011;593;53.184;8.216;2023-10-31T07:21:19;0.93;;;0.60;;
1206;SDS011;593;53.184;8.216;2023-10-31T07:23:45;1.83;;;0.70;;
1206;SDS011;593;53.184;8.216;2023-10-31T07:26:10;1.13;;;0.70;;
1206;SDS011;593;53.184;8.216;2023-10-31T07:28:36;0.90;;;0.70;;
1206;SDS011;593;53.184;8.216;2023-10-31T07:31:01;1.77;;;0.77;;
1206;SDS011;593;53.184;8.216;2023-10-31T07:33:27;0.90;;;0.70;;
1206;SDS011;593;53.184;8.216;2023-10-31T07:35:52;1.53;;;0.60;;
1206;SDS011;593;53.184;8.216;2023-10-31T07:38:18;0.63;;;0.63;;
1206;SDS011;593;53.184;8.216;2023-10-31T07:40:43;2.70;;;0.70;;
1206;SDS011;593;53.184;8.216;2023-10-31T07:43:08;0.63;;;0.60;;
1206;SDS011;593;53.184;8.216;2023-10-31T07:45:34;0.83;;;0.70;;
1206;SDS011;593;53.184;8.216;2023-10-31T07:48:00;0.90;;;0.70;;
1206;SDS011;593;53.184;8.216;2023-10-31T07:50:26;0.80;;;0.80;;
1206;SDS011;593;53.184;8.216;2023-10-31T07:52:52;1.60;;;0.70;;
1206;SDS011;593;53.184;8.216;2023-10-31T07:55:18;0.80;;;0.60;;
1206;SDS011;593;53.184;8.216;2023-10-31T07:57:43;1.23;;;0.77;;
1206;SDS011;593;53.184;8.216;2023-10-31T08:00:09;2.90;;;0.80;;
1206;SDS011;593;53.184;8.216;2023-10-31T08:02:38;2.40;;;0.60;;
1206;SDS011;593;53.184;8.216;2023-10-31T08:05:03;0.53;;;0.50;;
1206;SDS011;593;53.184;8.216;2023-10-31T08:07:29;0.80;;;0.50;;
1206;SDS011;593;53.184;8.216;2023-10-31T08:09:55;1.10;;;0.60;;
1206;SDS011;593;53.184;8.216;2023-10-31T08:12:22;0.60;;;0.60;;
1206;SDS011;593;53.184;8.216;2023-10-31T08:14:48;1.43;;;0.50;;
1206;SDS011;593;53.184;8.216;2023-10-31T08:17:14;0.80;;;0.50;;
1206;SDS011;593;53.184;8.216;2023-10-31T08:19:39;1.27;;;0.50;;
1206;SDS011;593;53.184;8.216;2023-10-31T08:22:05;0.80;;;0.53;;
1206;SDS011;593;53.184;8.216;2023-10-31T08:24:30;0.60;;;0.50;;
1206;SDS011;593;53.184;8.216;2023-10-31T08:26:55;0.60;;;0.60;;
1206;SDS011;593;53.184;8.216;2023-10-31T08:29:21;0.67;;;0.53;;
1206;SDS011;593;53.184;8.216;2023-10-31T08:31:47;0.97;;;0.50;;
1206;SDS011;593;53.184;8.216;2023-10-31T08:34:12;1.10;;;0.50;;
1206;SDS011;593;53.184;8.216;2023-10-31T08:36:37;1.27;;;0.60;;
1206;SDS011;593;53.184;8.216;2023-10-31T08:39:03;1.10;;;0.60;;
1206;SDS011;593;53.184;8.216;2023-10-31T08:41:28;0.60;;;0.60;;
1206;SDS011;593;53.184;8.216;2023-10-31T08:43:54;0.60;;;0.60;;
1206;SDS011;593;53.184;8.216;2023-10-31T08:46:19;0.93;;;0.63;;
1206;SDS011;593;53.184;8.216;2023-10-31T08:48:45;0.97;;;0.70;;
1206;SDS011;593;53.184;8.216;2023-10-31T08:51:10;0.60;;;0.60;;
1206;SDS011;593;53.184;8.216;2023-10-31T08:53:35;0.60;;;0.60;;
1206;SDS011;593;53.184;8.216;2023-10-31T08:56:01;0.77;;;0.77;;
1206;SDS011;593;53.184;8.216;2023-10-31T08:58:27;1.97;;;0.80;;
1206;SDS011;593;53.184;8.216;2023-10-31T09:00:53;0.60;;;0.60;;
1206;SDS011;593;53.184;8.216;2023-10-31T09:03:19;1.93;;;1.00;;
1206;SDS011;593;53.184;8.216;2023-10-31T09:05:44;0.60;;;0.60;;
1206;SDS011;593;53.184;8.216;2023-10-31T09:08:10;0.70;;;0.63;;
1206;SDS011;593;53.184;8.216;2023-10-31T09:10:36;0.60;;;0.60;;
1206;SDS011;593;53.184;8.216;2023-10-31T09:13:03;0.80;;;0.80;;
1206;SDS011;593;53.184;8.216;2023-10-31T09:15:28;1.10;;;0.70;;
1206;SDS011;593;53.184;8.216;2023-10-31T09:17:54;0.70;;;0.70;;
1206;SDS011;593;53.184;8.216;2023-10-31T09:20:19;0.90;;;0.70;;
1206;SDS011;593;53.184;8.216;2023-10-31T09:22:45;0.83;;;0.80;;
1206;SDS011;593;53.184;8.216;2023-10-31T09:25:10;1.87;;;0.70;;
1206;SDS011;593;53.184;8.216;2023-10-31T09:27:36;1.07;;;0.90;;
1206;SDS011;593;53.184;8.216;2023-10-31T09:30:06;0.73;;;0.73;;
1206;SDS011;593;53.184;8.216;2023-10-31T09:32:32;1.77;;;0.80;;
1206;SDS011;593;53.184;8.216;2023-10-31T09:34:57;3.00;;;0.93;;
1206;SDS011;593;53.184;8.216;2023-10-31T09:37:26;1.20;;;1.10;;
1206;SDS011;593;53.184;8.216;2023-10-31T09:39:52;2.03;;;1.13;;
1206;SDS011;593;53.184;8.216;2023-10-31T09:42:17;0.80;;;0.80;;
1206;SDS011;593;53.184;8.216;2023-10-31T09:44:43;1.10;;;1.00;;
1206;SDS011;593;53.184;8.216;2023-10-31T09:47:09;1.93;;;1.30;;
1206;SDS011;593;53.184;8.216;2023-10-31T09:49:34;1.80;;;1.13;;
1206;SDS011;593;53.184;8.216;2023-10-31T09:52:00;1.20;;;1.10;;
1206;SDS011;593;53.184;8.216;2023-10-31T09:54:26;1.33;;;1.00;;
1206;SDS011;593;53.184;8.216;2023-10-31T09:56:55;1.53;;;1.00;;
1206;SDS011;593;53.184;8.216;2023-10-31T09:59:20;1.00;;;1.00;;
1206;SDS011;593;53.184;8.216;2023-10-31T10:01:46;1.37;;;0.90;;
1206;SDS011;593;53.184;8.216;2023-10-31T10:04:11;1.10;;;1.00;;
1206;SDS011;593;53.184;8.216;2023-10-31T10:06:39;3.10;;;1.37;;
1206;SDS011;593;53.184;8.216;2023-10-31T10:09:14;5.03;;;1.00;;
1206;SDS011;593;53.184;8.216;2023-10-31T10:11:40;2.77;;;0.90;;
1206;SDS011;593;53.184;8.216;2023-10-31T10:14:06;1.80;;;1.40;;
1206;SDS011;593;53.184;8.216;2023-10-31T10:16:34;1.30;;;1.17;;
1206;SDS011;593;53.184;8.216;2023-10-31T10:19:19;2.97;;;1.27;;
1206;SDS011;593;53.184;8.216;2023-10-31T10:21:52;1.37;;;1.10;;
1206;SDS011;593;53.184;8.216;2023-10-31T10:24:20;2.23;;;1.80;;
1206;SDS011;593;53.184;8.216;2023-10-31T10:26:46;1.23;;;1.13;;
1206;SDS011;593;53.184;8.216;2023-10-31T10:29:12;1.10;;;1.00;;
1206;SDS011;593;53.184;8.216;2023-10-31T10:31:37;1.70;;;1.60;;
1206;SDS011;593;53.184;8.216;2023-10-31T10:34:03;1.23;;;1.00;;
1206;SDS011;593;53.184;8.216;2023-10-31T10:36:28;1.83;;;1.73;;
1206;SDS011;593;53.184;8.216;2023-10-31T10:38:57;1.30;;;1.20;;
1206;SDS011;593;53.184;8.216;2023-10-31T10:41:24;2.43;;;1.43;;
1206;SDS011;593;53.184;8.216;2023-10-31T10:44:06;1.83;;;1.70;;
1206;SDS011;593;53.184;8.216;2023-10-31T10:46:33;10.57;;;2.17;;
1206;SDS011;593;53.184;8.216;2023-10-31T10:49:03;2.33;;;1.40;;
1206;SDS011;593;53.184;8.216;2023-10-31T10:51:30;1.97;;;1.87;;
1206;SDS011;593;53.184;8.216;2023-10-31T10:54:24;1.40;;;1.30;;
1206;SDS011;593;53.184;8.216;2023-10-31T10:56:59;1.00;;;1.00;;
1206;SDS011;593;53.184;8.216;2023-10-31T10:59:39;2.90;;;1.33;;
1206;SDS011;593;53.184;8.216;2023-10-31T11:02:07;2.17;;;0.90;;
1206;SDS011;593;53.184;8.216;2023-10-31T11:04:35;2.50;;;1.40;;
1206;SDS011;593;53.184;8.216;2023-10-31T11:07:01;2.60;;;1.10;;
1206;SDS011;593;53.184;8.216;2023-10-31T11:09:28;1.10;;;1.10;;
1206;SDS011;593;53.184;8.216;2023-10-31T11:11:55;0.80;;;0.80;;
1206;SDS011;593;53.184;8.216;2023-10-31T11:14:22;1.80;;;0.80;;
1206;SDS011;593;53.184;8.216;2023-10-31T11:16:51;2.60;;;0.90;;
1206;SDS011;593;53.184;8.216;2023-10-31T11:19:18;1.53;;;0.80;;
1206;SDS011;593;53.184;8.216;2023-10-31T11:22:00;0.80;;;0.80;;
1206;SDS011;593;53.184;8.216;2023-10-31T11:24:27;1.43;;;0.80;;
1206;SDS011;593;53.184;8.216;2023-10-31T11:26:58;1.00;;;0.83;;
1206;SDS011;593;53.184;8.216;2023-10-31T11:29:24;0.70;;;0.70;;
1206;SDS011;593;53.184;8.216;2023-10-31T11:31:51;1.20;;;0.80;;
1206;SDS011;593;53.184;8.216;2023-10-31T11:34:16;0.90;;;0.80;;
1206;SDS011;593;53.184;8.216;2023-10-31T11:36:44;1.57;;;1.20;;
1206;SDS011;593;53.184;8.216;2023-10-31T11:39:15;1.63;;;0.90;;
1206;SDS011;593;53.184;8.216;2023-10-31T11:41:49;1.27;;;0.70;;
1206;SDS011;593;53.184;8.216;2023-10-31T11:44:15;1.83;;;0.70;;
1206;SDS011;593;53.184;8.216;2023-10-31T11:46:41;0.80;;;0.50;;
1206;SDS011;593;53.184;8.216;2023-10-31T11:49:07;0.70;;;0.50;;
1206;SDS011;593;53.184;8.216;2023-10-31T11:51:36;0.93;;;0.50;;
1206;SDS011;593;53.184;8.216;2023-10-31T11:54:01;0.50;;;0.40;;
1206;SDS011;593;53.184;8.216;2023-10-31T11:56:27;0.60;;;0.40;;
1206;SDS011;593;53.184;8.216;2023-10-31T11:59:01;1.10;;;0.47;;
1206;SDS011;593;53.184;8.216;2023-10-31T12:01:27;0.80;;;0.50;;
1206;SDS011;593;53.184;8.216;2023-10-31T12:03:53;0.60;;;0.50;;
1206;SDS011;593;53.184;8.216;2023-10-31T12:06:19;0.60;;;0.40;;
1206;SDS011;593;53.184;8.216;2023-10-31T12:08:46;2.70;;;0.50;;
1206;SDS011;593;53.184;8.216;2023-10-31T12:11:14;1.00;;;0.40;;
1206;SDS011;593;53.184;8.216;2023-10-31T12:14:00;0.60;;;0.50;;
1206;SDS011;593;53.184;8.216;2023-10-31T12:16:33;1.27;;;0.40;;
1206;SDS011;593;53.184;8.216;2023-10-31T12:24:21;0.53;;;0.40;;
1206;SDS011;593;53.184;8.216;2023-10-31T12:26:46;1.00;;;0.40;;
1206;SDS011;593;53.184;8.216;2023-10-31T12:29:16;1.20;;;0.50;;
1206;SDS011;593;53.184;8.216;2023-10-31T12:31:43;1.07;;;0.40;;
1206;SDS011;593;53.184;8.216;2023-10-31T12:34:16;0.70;;;0.40;;
1206;SDS011;593;53.184;8.216;2023-10-31T12:36:43;1.03;;;0.40;;
1206;SDS011;593;53.184;8.216;2023-10-31T12:39:10;1.70;;;0.47;;
1206;SDS011;593;53.184;8.216;2023-10-31T12:41:37;1.77;;;0.50;;
1206;SDS011;593;53.184;8.216;2023-10-31T12:44:05;0.70;;;0.40;;
1206;SDS011;593;53.184;8.216;2023-10-31T12:46:33;0.50;;;0.40;;
1206;SDS011;593;53.184;8.216;2023-10-31T12:49:00;0.80;;;0.40;;
1206;SDS011;593;53.184;8.216;2023-10-31T12:51:25;0.60;;;0.40;;
1206;SDS011;593;53.184;8.216;2023-10-31T12:53:51;0.60;;;0.50;;
1206;SDS011;593;53.184;8.216;2023-10-31T12:56:37;1.33;;;0.60;;
1206;SDS011;593;53.184;8.216;2023-10-31T12:59:07;0.67;;;0.50;;
1206;SDS011;593;53.184;8.216;2023-10-31T13:01:39;0.50;;;0.40;;
1206;SDS011;593;53.184;8.216;2023-10-31T13:04:09;1.93;;;0.40;;
1206;SDS011;593;53.184;8.216;2023-10-31T13:06:34;0.70;;;0.40;;
1206;SDS011;593;53.184;8.216;2023-10-31T13:09:00;0.60;;;0.40;;
1206;SDS011;593;53.184;8.216;2023-10-31T13:11:30;1.23;;;0.50;;
1206;SDS011;593;53.184;8.216;2023-10-31T13:13:55;1.03;;;0.57;;
1206;SDS011;593;53.184;8.216;2023-10-31T13:16:20;1.00;;;0.57;;
1206;SDS011;593;53.184;8.216;2023-10-31T13:18:46;1.83;;;0.40;;
1206;SDS011;593;53.184;8.216;2023-10-31T13:21:12;0.60;;;0.40;;
1206;SDS011;593;53.184;8.216;2023-10-31T13:23:40;0.90;;;0.50;;
1206;SDS011;593;53.184;8.216;2023-10-31T13:26:08;3.87;;;0.70;;
1206;SDS011;593;53.184;8.216;2023-10-31T13:28:34;1.20;;;0.50;;
1206;SDS011;593;53.184;8.216;2023-10-31T13:31:00;1.80;;;0.60;;
1206;SDS011;593;53.184;8.216;2023-10-31T13:33:25;2.50;;;0.67;;
1206;SDS011;593;53.184;8.216;2023-10-31T13:35:51;2.10;;;0.50;;
1206;SDS011;593;53.184;8.216;2023-10-31T13:38:17;3.63;;;0.70;;
1206;SDS011;593;53.184;8.216;2023-10-31T13:40:43;1.17;;;0.50;;
1206;SDS011;593;53.184;8.216;2023-10-31T13:43:09;0.67;;;0.50;;
1206;SDS011;593;53.184;8.216;2023-10-31T13:45:34;0.97;;;0.73;;
1206;SDS011;593;53.184;8.216;2023-10-31T13:47:59;3.37;;;0.60;;
1206;SDS011;593;53.184;8.216;2023-10-31T13:50:25;1.27;;;0.63;;
1206;SDS011;593;53.184;8.216;2023-10-31T13:52:50;1.60;;;0.60;;
1206;SDS011;593;53.184;8.216;2023-10-31T13:55:15;1.20;;;0.73;;
1206;SDS011;593;53.184;8.216;2023-10-31T13:57:41;2.33;;;0.60;;
1206;SDS011;593;53.184;8.216;2023-10-31T14:00:06;1.97;;;0.70;;
1206;SDS011;593;53.184;8.216;2023-10-31T14:02:34;0.77;;;0.50;;
1206;SDS011;593;53.184;8.216;2023-10-31T14:05:00;2.77;;;0.50;;
1206;SDS011;593;53.184;8.216;2023-10-31T14:07:26;0.60;;;0.47;;
1206;SDS011;593;53.184;8.216;2023-10-31T14:09:51;1.47;;;1.00;;
1206;SDS011;593;53.184;8.216;2023-10-31T14:12:18;1.90;;;1.23;;
1206;SDS011;593;53.184;8.216;2023-10-31T14:14:43;9.70;;;4.63;;
1206;SDS011;593;53.184;8.216;2023-10-31T14:17:12;5.27;;;3.73;;
1206;SDS011;593;53.184;8.216;2023-10-31T14:19:39;10.10;;;5.57;;
1206;SDS011;593;53.184;8.216;2023-10-31T14:22:04;6.90;;;4.07;;
1206;SDS011;593;53.184;8.216;2023-10-31T14:24:29;2.50;;;1.20;;
1206;SDS011;593;53.184;8.216;2023-10-31T14:26:55;0.80;;;0.77;;
1206;SDS011;593;53.184;8.216;2023-10-31T14:29:26;1.03;;;0.80;;
1206;SDS011;593;53.184;8.216;2023-10-31T14:31:52;1.77;;;0.70;;
1206;SDS011;593;53.184;8.216;2023-10-31T14:34:19;0.60;;;0.50;;
1206;SDS011;593;53.184;8.216;2023-10-31T14:36:46;2.80;;;0.70;;
1206;SDS011;593;53.184;8.216;2023-10-31T14:39:11;0.80;;;0.50;;
1206;SDS011;593;53.184;8.216;2023-10-31T14:41:37;3.50;;;0.60;;
1206;SDS011;593;53.184;8.216;2023-10-31T14:44:02;2.73;;;0.60;;
1206;SDS011;593;53.184;8.216;2023-10-31T14:46:28;0.73;;;0.50;;
1206;SDS011;593;53.184;8.216;2023-10-31T14:48:54;1.37;;;0.50;;
1206;SDS011;593;53.184;8.216;2023-10-31T14:51:19;1.93;;;0.60;;
1206;SDS011;593;53.184;8.216;2023-10-31T14:53:44;3.37;;;0.70;;
1206;SDS011;593;53.184;8.216;2023-10-31T14:56:10;3.00;;;0.83;;
1206;SDS011;593;53.184;8.216;2023-10-31T14:58:35;0.80;;;0.60;;
1206;SDS011;593;53.184;8.216;2023-10-31T15:01:01;1.70;;;0.60;;
1206;SDS011;593;53.184;8.216;2023-10-31T15:03:26;2.87;;;1.13;;
1206;SDS011;593;53.184;8.216;2023-10-31T15:05:52;4.30;;;0.97;;
1206;SDS011;593;53.184;8.216;2023-10-31T15:08:17;4.47;;;1.00;;
1206;SDS011;593;53.184;8.216;2023-10-31T15:10:46;0.90;;;0.83;;
1206;SDS011;593;53.184;8.216;2023-10-31T15:13:11;1.80;;;0.70;;
1206;SDS011;593;53.184;8.216;2023-10-31T15:15:37;2.07;;;1.00;;
1206;SDS011;593;53.184;8.216;2023-10-31T15:18:02;1.20;;;0.83;;
1206;SDS011;593;53.184;8.216;2023-10-31T15:20:28;2.20;;;1.10;;
1206;SDS011;593;53.184;8.216;2023-10-31T15:22:56;1.67;;;0.90;;
1206;SDS011;593;53.184;8.216;2023-10-31T15:25:22;1.10;;;1.00;;